Weather History for Perryton, TX

Change the Weather History Date:

Wednesday, December 12, 2012

  Actual Average Record
Temperature  
Mean Temperature 41 °F -  
Max Temperature 59 °F 47 °F 67 °F (1968)
Min Temperature 23 °F 21 °F 3 °F (1972)
Degree Days  
Heating Degree Days 24    
Moisture  
Dew Point 13 °F    
Average Humidity 37    
Maximum Humidity 63    
Minimum Humidity 17    
Precipitation  
Precipitation 0.00 in - - ()
Sea Level Pressure  
Sea Level Pressure 29.97 in    
Wind  
Wind Speed 12 mph (South)    
Max Wind Speed 22 mph    
Max Gust Speed 30 mph    
Visibility 10 miles    
Events      
Averages and records for this station are not official NWS values.
T = Trace of Precipitation, MM = Missing Value Source: NWS Daily Summary

Daily Weather History Graph

Daily Weather History Graph

Search for Another Location

Airport:

Trip Planner

Search our weather history database for the weather conditions in past years. The results will help you decide how hot, cold, wet, or windy it might be!

Date:

Astronomy

Dec. 12, 2012 Rise Set
Actual Time 7:45 AM CST 5:28 PM CST
Civil Twilight 7:16 AM CST 5:57 PM CST
Nautical Twilight 6:44 AM CST 6:29 PM CST
Astronomical Twilight 6:13 AM CST 7:00 PM CST
Moon 6:52 AM CST (12/12) 5:06 PM CST (12/12)
Length of Visible Light 10h 40m
Length of Day
9h 42m
Waning Crescent, 1% of the Moon is Illuminated
Dec 12
Waning Crescent
Dec 13
New
Dec 19
First Quarter
Dec 28
Full
Jan 4
Last Quarter

Hourly Weather History & Observations

Time (CST) Temp. Windchill Dew Point Humidity Pressure Visibility Wind Dir Wind Speed Gust Speed Precip Events Conditions
12:15 AM 28.4 °F 19.1 °F 10.4 °F 47% 30.05 in 10.0 mi South 10.4 mph - N/A   Clear
12:35 AM 26.6 °F 16.8 °F 10.4 °F 51% 30.05 in 10.0 mi South 10.4 mph - N/A   Clear
12:55 AM 23.0 °F 13.1 °F 8.6 °F 54% 30.03 in 10.0 mi South 9.2 mph - N/A   Clear
1:15 AM 26.6 °F 16.8 °F 10.4 °F 51% 30.03 in 10.0 mi South 10.4 mph - N/A   Clear
1:35 AM 28.4 °F 19.7 °F 12.2 °F 51% 30.03 in 10.0 mi South 9.2 mph - N/A   Clear
1:55 AM 26.6 °F 16.8 °F 10.4 °F 51% 30.02 in 10.0 mi South 10.4 mph - N/A   Clear
2:15 AM 28.4 °F 18.5 °F 12.2 °F 51% 30.01 in 10.0 mi South 11.5 mph - N/A   Clear
2:35 AM 28.4 °F 19.1 °F 12.2 °F 51% 30.02 in 10.0 mi South 10.4 mph - N/A   Clear
2:55 AM 26.6 °F 16.2 °F 12.2 °F 55% 30.03 in 10.0 mi South 11.5 mph - N/A   Clear
3:15 AM 28.4 °F 18.5 °F 12.2 °F 51% 30.02 in 10.0 mi South 11.5 mph - N/A   Clear
3:35 AM 28.4 °F 18.5 °F 12.2 °F 51% 30.02 in 10.0 mi South 11.5 mph - N/A   Clear
3:55 AM 28.4 °F 19.1 °F 12.2 °F 51% 30.02 in 10.0 mi South 10.4 mph - N/A   Clear
4:15 AM 28.4 °F 19.1 °F 12.2 °F 51% 30.00 in 10.0 mi South 10.4 mph - N/A   Clear
4:35 AM 28.4 °F 19.1 °F 12.2 °F 51% 29.99 in 10.0 mi South 10.4 mph - N/A   Clear
4:55 AM 26.6 °F 16.8 °F 12.2 °F 55% 29.99 in 10.0 mi South 10.4 mph - N/A   Clear
5:15 AM 24.8 °F 14.6 °F 12.2 °F 59% 29.99 in 10.0 mi South 10.4 mph - N/A   Clear
5:35 AM 26.6 °F 16.8 °F 12.2 °F 55% 29.99 in 10.0 mi South 10.4 mph - N/A   Clear
5:55 AM 26.6 °F 16.2 °F 12.2 °F 55% 29.99 in 10.0 mi South 11.5 mph - N/A   Clear
6:15 AM 28.4 °F 18.0 °F 12.2 °F 51% 29.99 in 10.0 mi South 12.7 mph - N/A   Clear
6:35 AM 28.4 °F 17.5 °F 12.2 °F 51% 29.98 in 10.0 mi South 13.8 mph - N/A   Clear
6:55 AM 28.4 °F 18.5 °F 12.2 °F 51% 29.98 in 10.0 mi South 11.5 mph - N/A   Clear
7:15 AM 26.6 °F 17.5 °F 12.2 °F 55% 29.98 in 10.0 mi South 9.2 mph - N/A   Clear
7:35 AM 24.8 °F 16.9 °F 12.2 °F 59% 29.99 in 10.0 mi South 6.9 mph - N/A   Clear
7:55 AM 23.0 °F 15.8 °F 12.2 °F 63% 30.00 in 10.0 mi South 5.8 mph - N/A   Clear
8:15 AM 24.8 °F 15.3 °F 12.2 °F 59% 29.99 in 10.0 mi SSE 9.2 mph - N/A   Clear
8:35 AM 28.4 °F 19.1 °F 14.0 °F 55% 29.99 in 10.0 mi South 10.4 mph - N/A   Clear
8:55 AM 32.0 °F 23.0 °F 14.0 °F 48% 29.99 in 10.0 mi South 11.5 mph - N/A   Clear
9:15 AM 33.8 °F 23.5 °F 14.0 °F 44% 29.99 in 10.0 mi South 16.1 mph - N/A   Clear
9:35 AM 37.4 °F 26.6 °F 14.0 °F 38% 29.99 in 10.0 mi South 21.9 mph 25.3 mph N/A   Clear
9:55 AM 39.2 °F 29.8 °F 12.2 °F 33% 29.99 in 10.0 mi SSW 18.4 mph 27.6 mph N/A   Clear
10:15 AM 41.0 °F 32.2 °F 12.2 °F 31% 29.99 in 10.0 mi SSW 18.4 mph 29.9 mph N/A   Clear
10:35 AM 42.8 °F 33.8 °F 14.0 °F 31% 29.99 in 10.0 mi SSW 21.9 mph - N/A   Clear
10:55 AM 44.6 °F 36.6 °F 14.0 °F 29% 29.98 in 10.0 mi SSW 19.6 mph 23.0 mph N/A   Clear
11:15 AM 46.4 °F 39.2 °F 14.0 °F 27% 29.98 in 10.0 mi SSW 18.4 mph 24.2 mph N/A   Clear
11:35 AM 48.2 °F - 14.0 °F 25% 29.98 in 10.0 mi South 18.4 mph 25.3 mph N/A   Clear
11:55 AM 48.2 °F - 14.0 °F 25% 29.97 in 10.0 mi SSW 18.4 mph 23.0 mph N/A   Clear
12:15 PM 50.0 °F - 14.0 °F 24% 29.97 in 10.0 mi SSW 17.3 mph 23.0 mph N/A   Clear
12:35 PM 51.8 °F - 14.0 °F 22% 29.96 in 10.0 mi SSW 15.0 mph 20.7 mph N/A   Clear
12:55 PM 51.8 °F - 14.0 °F 22% 29.95 in 10.0 mi SSW 15.0 mph 20.7 mph N/A   Clear
1:15 PM 53.6 °F - 14.0 °F 21% 29.95 in 10.0 mi SSW 15.0 mph 20.7 mph N/A   Clear
1:35 PM 55.4 °F - 14.0 °F 20% 29.94 in 10.0 mi South 13.8 mph 19.6 mph N/A   Clear
1:55 PM 55.4 °F - 14.0 °F 20% 29.93 in 10.0 mi South 16.1 mph 20.7 mph N/A   Clear
2:15 PM 57.2 °F - 14.0 °F 18% 29.93 in 10.0 mi SSW 15.0 mph - N/A   Clear
2:35 PM 59.0 °F - 14.0 °F 17% 29.92 in 10.0 mi SSW 16.1 mph 21.9 mph N/A   Clear
2:55 PM 59.0 °F - 14.0 °F 17% 29.92 in 10.0 mi South 16.1 mph - N/A   Clear
3:15 PM 59.0 °F - 14.0 °F 17% 29.92 in 10.0 mi South 19.6 mph 23.0 mph N/A   Clear
3:35 PM 59.0 °F - 14.0 °F 17% 29.92 in 10.0 mi SSW 17.3 mph - N/A   Clear
3:55 PM 59.0 °F - 14.0 °F 17% 29.92 in 10.0 mi South 16.1 mph 20.7 mph N/A   Clear
4:15 PM 59.0 °F - 14.0 °F 17% 29.92 in 10.0 mi South 17.3 mph 20.7 mph N/A   Clear
4:35 PM 59.0 °F - 14.0 °F 17% 29.92 in 10.0 mi South 13.8 mph - N/A   Clear
4:55 PM 57.2 °F - 14.0 °F 18% 29.92 in 10.0 mi South 11.5 mph - N/A   Clear
5:15 PM 55.4 °F - 14.0 °F 20% 29.92 in 10.0 mi South 10.4 mph - N/A   Clear
5:35 PM 50.0 °F - 12.2 °F 22% 29.92 in 10.0 mi South 11.5 mph - N/A   Clear
5:55 PM 48.2 °F - 14.0 °F 25% 29.92 in 10.0 mi South 11.5 mph - N/A   Clear
6:15 PM 46.4 °F 41.1 °F 12.2 °F 25% 29.93 in 10.0 mi SSE 11.5 mph - N/A   Clear
6:55 PM 42.8 °F 36.6 °F 12.2 °F 29% 29.94 in 10.0 mi SSE 11.5 mph - N/A   Clear
7:15 PM 41.0 °F 34.7 °F 12.2 °F 31% 29.94 in 10.0 mi SSE 10.4 mph - N/A   Clear
7:35 PM 39.2 °F 32.0 °F 12.2 °F 33% 29.94 in 10.0 mi SSE 11.5 mph - N/A   Clear
7:55 PM 41.0 °F 33.9 °F 12.2 °F 31% 29.94 in 10.0 mi SSE 12.7 mph - N/A   Clear
8:15 PM 41.0 °F 33.9 °F 12.2 °F 31% 29.94 in 10.0 mi SSE 12.7 mph - N/A   Clear
9:15 PM 41.0 °F 33.9 °F 12.2 °F 31% 29.96 in 10.0 mi South 12.7 mph - N/A   Clear
9:35 PM 41.0 °F 33.9 °F 14.0 °F 33% 29.96 in 10.0 mi South 12.7 mph - N/A   Clear
9:55 PM 39.2 °F 32.5 °F 12.2 °F 33% 29.97 in 10.0 mi South 10.4 mph - N/A   Clear
10:15 PM 35.6 °F 29.2 °F 12.2 °F 38% 29.97 in 10.0 mi South 8.1 mph - N/A   Clear
11:55 PM 35.6 °F 28.6 °F 12.2 °F 38% 29.98 in 10.0 mi South 9.2 mph - N/A   Clear